sensor_id;sensor_type;location;lat;lon;timestamp;pressure;altitude;pressure_sealevel;temperature;humidity
18987;BME280;9627;59.236;18.142;2023-02-15T00:00:24;102328.53;;;1.51;100.00
18987;BME280;9627;59.236;18.142;2023-02-15T00:02:50;102332.66;;;1.55;100.00
18987;BME280;9627;59.236;18.142;2023-02-15T00:05:17;102333.41;;;1.57;100.00
18987;BME280;9627;59.236;18.142;2023-02-15T00:07:46;102328.38;;;1.54;100.00
18987;BME280;9627;59.236;18.142;2023-02-15T00:10:13;102332.50;;;1.58;100.00
18987;BME280;9627;59.236;18.142;2023-02-15T00:12:40;102330.34;;;1.64;100.00
18987;BME280;9627;59.236;18.142;2023-02-15T00:15:08;102326.81;;;1.65;100.00
18987;BME280;9627;59.236;18.142;2023-02-15T00:17:34;102323.34;;;1.65;100.00
18987;BME280;9627;59.236;18.142;2023-02-15T00:20:01;102326.06;;;1.63;100.00
18987;BME280;9627;59.236;18.142;2023-02-15T00:22:29;102314.50;;;1.67;100.00
18987;BME280;9627;59.236;18.142;2023-02-15T00:24:57;102317.09;;;1.67;100.00
18987;BME280;9627;59.236;18.142;2023-02-15T00:27:24;102310.06;;;1.68;100.00
18987;BME280;9627;59.236;18.142;2023-02-15T00:29:51;102304.94;;;1.66;100.00
18987;BME280;9627;59.236;18.142;2023-02-15T00:32:19;102299.44;;;1.71;100.00
18987;BME280;9627;59.236;18.142;2023-02-15T00:34:46;102300.28;;;1.71;100.00
18987;BME280;9627;59.236;18.142;2023-02-15T00:37:13;102304.78;;;1.69;100.00
18987;BME280;9627;59.236;18.142;2023-02-15T00:39:40;102305.53;;;1.71;100.00
18987;BME280;9627;59.236;18.142;2023-02-15T00:42:09;102291.28;;;1.75;100.00
18987;BME280;9627;59.236;18.142;2023-02-15T00:44:36;102294.66;;;1.77;100.00
18987;BME280;9627;59.236;18.142;2023-02-15T00:47:03;102297.38;;;1.76;100.00
18987;BME280;9627;59.236;18.142;2023-02-15T00:49:30;102286.91;;;1.76;100.00
18987;BME280;9627;59.236;18.142;2023-02-15T00:51:58;102284.38;;;1.74;100.00
18987;BME280;9627;59.236;18.142;2023-02-15T00:54:25;102287.97;;;1.73;100.00
18987;BME280;9627;59.236;18.142;2023-02-15T00:56:52;102300.50;;;1.82;100.00
18987;BME280;9627;59.236;18.142;2023-02-15T00:59:20;102299.91;;;1.77;100.00
18987;BME280;9627;59.236;18.142;2023-02-15T01:01:47;102290.03;;;1.82;100.00
18987;BME280;9627;59.236;18.142;2023-02-15T01:04:15;102294.50;;;1.80;100.00
18987;BME280;9627;59.236;18.142;2023-02-15T01:06:42;102289.16;;;1.82;100.00
18987;BME280;9627;59.236;18.142;2023-02-15T01:09:09;102288.31;;;1.81;100.00
18987;BME280;9627;59.236;18.142;2023-02-15T01:11:37;102286.28;;;1.86;100.00
18987;BME280;9627;59.236;18.142;2023-02-15T01:14:04;102273.84;;;1.90;100.00
18987;BME280;9627;59.236;18.142;2023-02-15T01:16:33;102276.47;;;1.90;100.00
18987;BME280;9627;59.236;18.142;2023-02-15T01:19:00;102275.81;;;1.86;100.00
18987;BME280;9627;59.236;18.142;2023-02-15T01:21:28;102273.38;;;1.83;100.00
18987;BME280;9627;59.236;18.142;2023-02-15T01:23:56;102270.47;;;1.88;100.00
18987;BME280;9627;59.236;18.142;2023-02-15T01:26:24;102257.50;;;1.86;100.00
18987;BME280;9627;59.236;18.142;2023-02-15T01:28:50;102266.09;;;1.88;100.00
18987;BME280;9627;59.236;18.142;2023-02-15T01:31:20;102273.84;;;1.90;100.00
18987;BME280;9627;59.236;18.142;2023-02-15T01:33:49;102263.38;;;1.90;100.00
18987;BME280;9627;59.236;18.142;2023-02-15T01:36:16;102266.09;;;1.88;100.00
18987;BME280;9627;59.236;18.142;2023-02-15T01:38:43;102260.84;;;1.88;100.00
18987;BME280;9627;59.236;18.142;2023-02-15T01:41:10;102253.00;;;1.88;100.00
18987;BME280;9627;59.236;18.142;2023-02-15T01:43:48;102256.28;;;1.92;100.00
18987;BME280;9627;59.236;18.142;2023-02-15T01:46:16;102252.72;;;1.93;100.00
18987;BME280;9627;59.236;18.142;2023-02-15T01:48:45;102256.94;;;1.96;100.00
18987;BME280;9627;59.236;18.142;2023-02-15T01:51:14;102249.16;;;1.94;100.00
18987;BME280;9627;59.236;18.142;2023-02-15T01:53:45;102241.22;;;1.96;100.00
18987;BME280;9627;59.236;18.142;2023-02-15T01:56:15;102236.91;;;1.95;100.00
18987;BME280;9627;59.236;18.142;2023-02-15T01:58:44;102235.97;;;1.96;100.00
18987;BME280;9627;59.236;18.142;2023-02-15T02:01:12;102228.03;;;1.97;100.00
18987;BME280;9627;59.236;18.142;2023-02-15T02:03:41;102232.59;;;1.94;100.00
18987;BME280;9627;59.236;18.142;2023-02-15T02:06:11;102227.75;;;2.02;100.00
18987;BME280;9627;59.236;18.142;2023-02-15T02:08:40;102219.03;;;2.01;100.00
18987;BME280;9627;59.236;18.142;2023-02-15T02:11:09;102214.91;;;1.97;100.00
18987;BME280;9627;59.236;18.142;2023-02-15T02:13:37;102223.63;;;1.98;100.00
18987;BME280;9627;59.236;18.142;2023-02-15T02:16:06;102225.50;;;1.96;100.00
18987;BME280;9627;59.236;18.142;2023-02-15T02:18:37;102210.69;;;1.95;100.00
18987;BME280;9627;59.236;18.142;2023-02-15T02:21:17;102209.69;;;1.97;100.00
18987;BME280;9627;59.236;18.142;2023-02-15T02:23:57;102204.66;;;1.94;100.00
18987;BME280;9627;59.236;18.142;2023-02-15T02:26:39;102210.53;;;1.98;100.00
18987;BME280;9627;59.236;18.142;2023-02-15T02:34:50;102193.69;;;2.02;100.00
18987;BME280;9627;59.236;18.142;2023-02-15T02:37:19;102200.16;;;1.96;100.00
18987;BME280;9627;59.236;18.142;2023-02-15T02:39:52;102198.19;;;2.00;100.00
18987;BME280;9627;59.236;18.142;2023-02-15T02:42:24;102201.56;;;2.02;100.00
18987;BME280;9627;59.236;18.142;2023-02-15T02:44:53;102192.00;;;2.01;100.00
18987;BME280;9627;59.236;18.142;2023-02-15T02:47:29;102186.84;;;1.99;100.00
18987;BME280;9627;59.236;18.142;2023-02-15T02:50:00;102182.47;;;2.00;100.00
18987;BME280;9627;59.236;18.142;2023-02-15T02:52:38;102190.22;;;2.01;100.00
18987;BME280;9627;59.236;18.142;2023-02-15T02:55:05;102183.88;;;2.05;100.00
18987;BME280;9627;59.236;18.142;2023-02-15T02:57:33;102183.97;;;2.04;100.00
18987;BME280;9627;59.236;18.142;2023-02-15T03:00:04;102173.59;;;2.02;100.00
18987;BME280;9627;59.236;18.142;2023-02-15T03:02:34;102179.84;;;2.00;100.00
18987;BME280;9627;59.236;18.142;2023-02-15T03:05:07;102178.34;;;1.96;100.00
18987;BME280;9627;59.236;18.142;2023-02-15T03:07:35;102180.13;;;1.95;100.00
18987;BME280;9627;59.236;18.142;2023-02-15T03:10:03;102174.97;;;1.94;100.00
18987;BME280;9627;59.236;18.142;2023-02-15T03:12:32;102177.41;;;1.97;100.00
18987;BME280;9627;59.236;18.142;2023-02-15T03:15:01;102169.53;;;1.97;100.00
18987;BME280;9627;59.236;18.142;2023-02-15T03:17:30;102178.25;;;1.97;100.00
18987;BME280;9627;59.236;18.142;2023-02-15T03:19:59;102170.28;;;1.99;100.00
18987;BME280;9627;59.236;18.142;2023-02-15T03:22:30;102173.97;;;1.96;100.00
18987;BME280;9627;59.236;18.142;2023-02-15T03:25:02;102177.13;;;2.01;100.00
18987;BME280;9627;59.236;18.142;2023-02-15T03:27:32;102169.53;;;1.97;100.00
18987;BME280;9627;59.236;18.142;2023-02-15T03:30:01;102173.13;;;1.96;100.00
18987;BME280;9627;59.236;18.142;2023-02-15T03:32:29;102172.91;;;1.99;100.00
18987;BME280;9627;59.236;18.142;2023-02-15T03:34:59;102173.66;;;2.01;100.00
18987;BME280;9627;59.236;18.142;2023-02-15T03:37:26;102176.94;;;2.04;100.00
18987;BME280;9627;59.236;18.142;2023-02-15T03:39:57;102170.88;;;2.04;100.00
18987;BME280;9627;59.236;18.142;2023-02-15T03:42:47;102157.03;;;2.02;100.00
18987;BME280;9627;59.236;18.142;2023-02-15T03:45:16;102164.88;;;2.02;100.00
18987;BME280;9627;59.236;18.142;2023-02-15T03:47:44;102157.88;;;2.02;100.00
18987;BME280;9627;59.236;18.142;2023-02-15T03:50:13;102158.91;;;2.00;100.00
18987;BME280;9627;59.236;18.142;2023-02-15T03:52:56;102148.22;;;2.03;100.00
18987;BME280;9627;59.236;18.142;2023-02-15T03:55:26;102150.09;;;2.01;100.00
18987;BME280;9627;59.236;18.142;2023-02-15T03:57:54;102146.81;;;2.11;100.00
18987;BME280;9627;59.236;18.142;2023-02-15T04:00:38;102148.78;;;2.08;100.00
18987;BME280;9627;59.236;18.142;2023-02-15T04:03:26;102138.50;;;2.05;100.00
18987;BME280;9627;59.236;18.142;2023-02-15T04:05:58;102140.09;;;2.07;100.00
18987;BME280;9627;59.236;18.142;2023-02-15T04:08:26;102145.13;;;2.10;100.00
18987;BME280;9627;59.236;18.142;2023-02-15T04:11:14;102132.31;;;2.06;100.00
18987;BME280;9627;59.236;18.142;2023-02-15T04:13:40;102131.09;;;2.11;100.00
18987;BME280;9627;59.236;18.142;2023-02-15T04:16:07;102132.19;;;2.21;100.00
18987;BME280;9627;59.236;18.142;2023-02-15T04:18:33;102135.13;;;2.17;100.00
18987;BME280;9627;59.236;18.142;2023-02-15T04:21:18;102123.53;;;2.07;100.00
18987;BME280;9627;59.236;18.142;2023-02-15T04:24:02;102126.88;;;2.09;100.00
18987;BME280;9627;59.236;18.142;2023-02-15T04:26:48;102108.44;;;2.10;100.00
18987;BME280;9627;59.236;18.142;2023-02-15T04:29:18;102116.50;;;2.07;100.00
18987;BME280;9627;59.236;18.142;2023-02-15T04:31:45;102112.03;;;2.09;100.00
18987;BME280;9627;59.236;18.142;2023-02-15T04:34:12;102114.63;;;2.09;100.00
18987;BME280;9627;59.236;18.142;2023-02-15T04:36:39;102113.41;;;2.15;100.00
18987;BME280;9627;59.236;18.142;2023-02-15T04:39:06;102114.53;;;2.11;100.00
18987;BME280;9627;59.236;18.142;2023-02-15T04:41:33;102114.81;;;2.06;100.00
18987;BME280;9627;59.236;18.142;2023-02-15T04:44:02;102108.81;;;2.04;100.00
18987;BME280;9627;59.236;18.142;2023-02-15T04:46:30;102109.56;;;2.06;100.00
18987;BME280;9627;59.236;18.142;2023-02-15T04:48:57;102107.81;;;2.07;100.00
18987;BME280;9627;59.236;18.142;2023-02-15T04:51:24;102099.03;;;2.08;100.00
18987;BME280;9627;59.236;18.142;2023-02-15T04:53:51;102102.56;;;2.07;100.00
18987;BME280;9627;59.236;18.142;2023-02-15T04:56:19;102094.53;;;2.10;100.00
18987;BME280;9627;59.236;18.142;2023-02-15T04:58:46;102093.78;;;2.08;100.00
18987;BME280;9627;59.236;18.142;2023-02-15T05:01:15;102093.56;;;2.11;100.00
18987;BME280;9627;59.236;18.142;2023-02-15T05:03:42;102092.81;;;2.09;100.00
18987;BME280;9627;59.236;18.142;2023-02-15T05:06:09;102093.56;;;2.11;100.00
18987;BME280;9627;59.236;18.142;2023-02-15T05:08:36;102096.19;;;2.11;100.00
18987;BME280;9627;59.236;18.142;2023-02-15T05:11:03;102084.22;;;2.07;100.00
18987;BME280;9627;59.236;18.142;2023-02-15T05:13:30;102087.59;;;2.09;100.00
18987;BME280;9627;59.236;18.142;2023-02-15T05:15:57;102085.81;;;2.09;100.00
18987;BME280;9627;59.236;18.142;2023-02-15T05:18:25;102089.81;;;2.15;100.00
18987;BME280;9627;59.236;18.142;2023-02-15T05:20:52;102091.91;;;2.10;100.00
18987;BME280;9627;59.236;18.142;2023-02-15T05:23:19;102085.44;;;2.15;100.00
18987;BME280;9627;59.236;18.142;2023-02-15T05:25:47;102091.81;;;2.11;100.00
18987;BME280;9627;59.236;18.142;2023-02-15T05:28:31;102100.69;;;2.09;100.00
18987;BME280;9627;59.236;18.142;2023-02-15T05:31:00;102092.94;;;2.07;100.00
18987;BME280;9627;59.236;18.142;2023-02-15T05:33:30;102086.84;;;2.07;100.00
18987;BME280;9627;59.236;18.142;2023-02-15T05:35:57;102086.84;;;2.07;100.00
18987;BME280;9627;59.236;18.142;2023-02-15T05:38:24;102084.75;;;2.12;100.00
18987;BME280;9627;59.236;18.142;2023-02-15T05:40:51;102077.97;;;2.09;100.00
18987;BME280;9627;59.236;18.142;2023-02-15T05:43:18;102084.13;;;2.08;100.00
18987;BME280;9627;59.236;18.142;2023-02-15T05:45:46;102082.47;;;2.07;100.00
18987;BME280;9627;59.236;18.142;2023-02-15T05:48:13;102076.47;;;2.05;100.00
18987;BME280;9627;59.236;18.142;2023-02-15T05:50:42;102086.00;;;2.06;100.00
18987;BME280;9627;59.236;18.142;2023-02-15T05:53:09;102083.47;;;2.05;100.00
18987;BME280;9627;59.236;18.142;2023-02-15T05:55:37;102073.00;;;2.05;100.00
18987;BME280;9627;59.236;18.142;2023-02-15T05:58:04;102074.78;;;2.04;100.00
18987;BME280;9627;59.236;18.142;2023-02-15T06:00:31;102069.84;;;2.00;100.00
18987;BME280;9627;59.236;18.142;2023-02-15T06:02:58;102071.63;;;1.99;100.00
18987;BME280;9627;59.236;18.142;2023-02-15T06:05:24;102075.81;;;2.02;100.00
18987;BME280;9627;59.236;18.142;2023-02-15T06:07:53;102073.22;;;2.02;100.00
18987;BME280;9627;59.236;18.142;2023-02-15T06:10:20;102076.09;;;1.97;100.00
18987;BME280;9627;59.236;18.142;2023-02-15T06:12:47;102069.84;;;2.00;100.00
18987;BME280;9627;59.236;18.142;2023-02-15T06:15:14;102072.38;;;2.01;100.00
18987;BME280;9627;59.236;18.142;2023-02-15T06:17:41;102063.66;;;2.01;100.00
18987;BME280;9627;59.236;18.142;2023-02-15T06:20:09;102064.59;;;2.00;100.00
18987;BME280;9627;59.236;18.142;2023-02-15T06:22:36;102053.28;;;1.99;100.00
18987;BME280;9627;59.236;18.142;2023-02-15T06:25:05;102059.16;;;2.03;100.00
18987;BME280;9627;59.236;18.142;2023-02-15T06:27:35;102047.88;;;2.02;100.00
18987;BME280;9627;59.236;18.142;2023-02-15T06:30:02;102050.06;;;2.08;100.00
18987;BME280;9627;59.236;18.142;2023-02-15T06:32:30;102056.38;;;2.06;100.00
18987;BME280;9627;59.236;18.142;2023-02-15T06:34:57;102054.56;;;2.06;100.00
18987;BME280;9627;59.236;18.142;2023-02-15T06:37:24;102048.41;;;2.07;100.00
18987;BME280;9627;59.236;18.142;2023-02-15T06:39:51;102052.69;;;2.08;100.00
18987;BME280;9627;59.236;18.142;2023-02-15T06:42:20;102050.00;;;2.10;100.00
18987;BME280;9627;59.236;18.142;2023-02-15T06:44:47;102050.53;;;2.15;100.00
18987;BME280;9627;59.236;18.142;2023-02-15T06:47:14;102048.66;;;2.17;100.00
18987;BME280;9627;59.236;18.142;2023-02-15T06:49:41;102049.56;;;2.16;100.00
18987;BME280;9627;59.236;18.142;2023-02-15T06:52:08;102050.63;;;2.13;100.00
18987;BME280;9627;59.236;18.142;2023-02-15T06:54:35;102054.63;;;2.19;100.00
18987;BME280;9627;59.236;18.142;2023-02-15T06:57:02;102056.63;;;2.15;100.00
18987;BME280;9627;59.236;18.142;2023-02-15T06:59:31;102057.53;;;2.14;100.00
18987;BME280;9627;59.236;18.142;2023-02-15T07:01:58;102055.56;;;2.18;100.00
18987;BME280;9627;59.236;18.142;2023-02-15T07:04:25;102057.53;;;2.14;100.00
18987;BME280;9627;59.236;18.142;2023-02-15T07:06:53;102055.78;;;2.15;100.00
18987;BME280;9627;59.236;18.142;2023-02-15T07:09:20;102051.06;;;2.20;100.00
18987;BME280;9627;59.236;18.142;2023-02-15T07:11:48;102054.06;;;2.14;100.00
18987;BME280;9627;59.236;18.142;2023-02-15T07:14:33;102052.31;;;2.14;100.00
18987;BME280;9627;59.236;18.142;2023-02-15T07:17:00;102060.81;;;2.18;100.00
18987;BME280;9627;59.236;18.142;2023-02-15T07:19:27;102052.38;;;2.27;100.00
18987;BME280;9627;59.236;18.142;2023-02-15T07:21:54;102059.78;;;2.20;100.00
18987;BME280;9627;59.236;18.142;2023-02-15T07:24:21;102063.41;;;2.18;100.00
18987;BME280;9627;59.236;18.142;2023-02-15T07:26:48;102056.75;;;2.26;100.00
18987;BME280;9627;59.236;18.142;2023-02-15T07:29:15;102053.50;;;2.23;100.00
18987;BME280;9627;59.236;18.142;2023-02-15T07:31:44;102056.50;;;2.17;100.00
18987;BME280;9627;59.236;18.142;2023-02-15T07:34:11;102049.28;;;2.20;100.00
18987;BME280;9627;59.236;18.142;2023-02-15T07:36:38;102057.03;;;2.22;100.00
18987;BME280;9627;59.236;18.142;2023-02-15T07:39:05;102052.56;;;2.24;100.00
18987;BME280;9627;59.236;18.142;2023-02-15T07:41:32;102046.47;;;2.23;100.00
18987;BME280;9627;59.236;18.142;2023-02-15T07:43:59;102051.41;;;2.28;100.00
18987;BME280;9627;59.236;18.142;2023-02-15T07:46:26;102039.69;;;2.33;100.00
18987;BME280;9627;59.236;18.142;2023-02-15T07:48:55;102047.56;;;2.33;100.00
18987;BME280;9627;59.236;18.142;2023-02-15T07:51:22;102044.59;;;2.25;100.00
18987;BME280;9627;59.236;18.142;2023-02-15T07:53:49;102048.69;;;2.29;100.00
18987;BME280;9627;59.236;18.142;2023-02-15T07:56:16;102041.91;;;2.27;100.00
18987;BME280;9627;59.236;18.142;2023-02-15T07:58:43;102045.44;;;2.26;100.00
18987;BME280;9627;59.236;18.142;2023-02-15T08:01:21;102048.34;;;2.21;100.00
18987;BME280;9627;59.236;18.142;2023-02-15T08:03:49;102038.72;;;2.22;100.00
18987;BME280;9627;59.236;18.142;2023-02-15T08:06:19;102042.53;;;2.30;100.00
18987;BME280;9627;59.236;18.142;2023-02-15T08:08:46;102043.03;;;2.23;100.00
18987;BME280;9627;59.236;18.142;2023-02-15T08:11:17;102035.91;;;2.25;100.00
18987;BME280;9627;59.236;18.142;2023-02-15T08:14:02;102024.94;;;2.32;100.00
18987;BME280;9627;59.236;18.142;2023-02-15T08:16:31;102022.72;;;2.39;100.00
18987;BME280;9627;59.236;18.142;2023-02-15T08:18:58;102027.97;;;2.39;100.00
18987;BME280;9627;59.236;18.142;2023-02-15T08:21:28;102019.81;;;2.43;100.00
18987;BME280;9627;59.236;18.142;2023-02-15T08:23:56;102015.94;;;2.49;100.00
18987;BME280;9627;59.236;18.142;2023-02-15T08:26:23;102020.75;;;2.42;100.00
18987;BME280;9627;59.236;18.142;2023-02-15T08:28:50;102007.09;;;2.37;100.00
18987;BME280;9627;59.236;18.142;2023-02-15T08:31:18;102019.94;;;2.42;100.00
18987;BME280;9627;59.236;18.142;2023-02-15T08:33:45;102011.09;;;2.43;100.00
18987;BME280;9627;59.236;18.142;2023-02-15T08:36:13;102012.81;;;2.44;100.00
18987;BME280;9627;59.236;18.142;2023-02-15T08:38:42;102012.28;;;2.51;100.00
18987;BME280;9627;59.236;18.142;2023-02-15T08:41:09;102010.72;;;2.49;100.00
18987;BME280;9627;59.236;18.142;2023-02-15T08:43:36;102007.78;;;2.53;100.00
18987;BME280;9627;59.236;18.142;2023-02-15T08:46:04;102005.16;;;2.53;100.00
18987;BME280;9627;59.236;18.142;2023-02-15T08:48:31;102007.06;;;2.51;100.00
18987;BME280;9627;59.236;18.142;2023-02-15T08:50:58;102008.22;;;2.60;100.00
18987;BME280;9627;59.236;18.142;2023-02-15T08:53:25;102010.09;;;2.58;100.00
18987;BME280;9627;59.236;18.142;2023-02-15T08:55:57;102002.13;;;2.59;100.00
18987;BME280;9627;59.236;18.142;2023-02-15T08:58:24;101998.13;;;2.54;100.00
18987;BME280;9627;59.236;18.142;2023-02-15T09:00:51;101998.97;;;2.54;100.00
18987;BME280;9627;59.236;18.142;2023-02-15T09:03:18;101999.19;;;2.64;100.00
18987;BME280;9627;59.236;18.142;2023-02-15T09:05:45;102000.56;;;2.57;100.00
18987;BME280;9627;59.236;18.142;2023-02-15T09:08:12;101995.00;;;2.61;100.00
18987;BME280;9627;59.236;18.142;2023-02-15T09:10:39;102005.19;;;2.66;100.00
18987;BME280;9627;59.236;18.142;2023-02-15T09:13:08;101994.59;;;2.67;100.00
18987;BME280;9627;59.236;18.142;2023-02-15T09:15:35;101988.72;;;2.64;100.00
18987;BME280;9627;59.236;18.142;2023-02-15T09:18:02;101992.91;;;2.66;100.00
18987;BME280;9627;59.236;18.142;2023-02-15T09:20:31;101994.06;;;2.75;100.00
18987;BME280;9627;59.236;18.142;2023-02-15T09:22:58;101989.66;;;2.75;100.00
18987;BME280;9627;59.236;18.142;2023-02-15T09:25:25;101988.50;;;2.67;100.00
18987;BME280;9627;59.236;18.142;2023-02-15T09:27:52;101991.56;;;2.73;100.00
18987;BME280;9627;59.236;18.142;2023-02-15T09:30:21;101987.69;;;2.66;100.00
18987;BME280;9627;59.236;18.142;2023-02-15T09:32:48;101978.97;;;2.66;100.00
18987;BME280;9627;59.236;18.142;2023-02-15T09:35:15;101983.28;;;2.79;100.00
18987;BME280;9627;59.236;18.142;2023-02-15T09:37:42;101987.91;;;2.76;100.00
18987;BME280;9627;59.236;18.142;2023-02-15T09:40:10;101980.75;;;2.78;100.00
18987;BME280;9627;59.236;18.142;2023-02-15T09:42:58;101977.19;;;2.79;100.00
18987;BME280;9627;59.236;18.142;2023-02-15T09:48:28;101975.09;;;2.71;100.00
18987;BME280;9627;59.236;18.142;2023-02-15T09:51:03;101970.34;;;2.76;100.00
18987;BME280;9627;59.236;18.142;2023-02-15T09:53:36;101970.88;;;2.69;100.00
18987;BME280;9627;59.236;18.142;2023-02-15T09:56:09;101963.16;;;2.80;100.00
18987;BME280;9627;59.236;18.142;2023-02-15T09:58:44;101969.44;;;2.77;100.00
18987;BME280;9627;59.236;18.142;2023-02-15T10:01:15;101955.38;;;2.66;100.00
18987;BME280;9627;59.236;18.142;2023-02-15T10:03:50;101953.25;;;2.71;100.00
18987;BME280;9627;59.236;18.142;2023-02-15T10:06:24;101958.81;;;2.79;100.00
18987;BME280;9627;59.236;18.142;2023-02-15T10:09:07;101959.78;;;2.78;100.00
18987;BME280;9627;59.236;18.142;2023-02-15T10:11:40;101950.22;;;2.77;100.00
18987;BME280;9627;59.236;18.142;2023-02-15T10:17:04;101945.06;;;2.88;100.00
18987;BME280;9627;59.236;18.142;2023-02-15T10:19:38;101946.88;;;2.88;100.00
18987;BME280;9627;59.236;18.142;2023-02-15T10:22:13;101939.53;;;2.80;100.00
18987;BME280;9627;59.236;18.142;2023-02-15T10:24:52;101944.44;;;2.84;100.00
18987;BME280;9627;59.236;18.142;2023-02-15T10:27:22;101944.34;;;2.86;100.00
18987;BME280;9627;59.236;18.142;2023-02-15T10:29:52;101930.06;;;2.90;100.00
18987;BME280;9627;59.236;18.142;2023-02-15T10:32:26;101930.41;;;2.86;100.00
18987;BME280;9627;59.236;18.142;2023-02-15T10:34:57;101927.44;;;2.90;100.00
18987;BME280;9627;59.236;18.142;2023-02-15T10:37:31;101928.91;;;2.94;100.00
18987;BME280;9627;59.236;18.142;2023-02-15T10:40:05;101926.19;;;2.96;100.00
18987;BME280;9627;59.236;18.142;2023-02-15T10:42:37;101920.50;;;3.02;100.00
18987;BME280;9627;59.236;18.142;2023-02-15T10:45:10;101916.94;;;3.15;100.00
18987;BME280;9627;59.236;18.142;2023-02-15T10:47:50;101911.25;;;3.21;100.00
18987;BME280;9627;59.236;18.142;2023-02-15T10:53:09;101905.50;;;3.16;100.00
18987;BME280;9627;59.236;18.142;2023-02-15T10:55:43;101907.09;;;3.06;100.00
18987;BME280;9627;59.236;18.142;2023-02-15T10:58:16;101907.94;;;2.94;100.00
18987;BME280;9627;59.236;18.142;2023-02-15T11:00:45;101905.94;;;3.10;100.00
18987;BME280;9627;59.236;18.142;2023-02-15T11:03:21;101897.63;;;3.16;100.00
18987;BME280;9627;59.236;18.142;2023-02-15T11:05:53;101871.94;;;2.96;100.00
18987;BME280;9627;59.236;18.142;2023-02-15T11:08:26;101886.78;;;3.21;100.00
18987;BME280;9627;59.236;18.142;2023-02-15T11:10:57;101891.00;;;3.23;100.00
18987;BME280;9627;59.236;18.142;2023-02-15T11:13:27;101890.91;;;3.12;100.00
18987;BME280;9627;59.236;18.142;2023-02-15T11:16:00;101889.88;;;3.02;100.00
18987;BME280;9627;59.236;18.142;2023-02-15T11:18:31;101882.66;;;2.93;100.00
18987;BME280;9627;59.236;18.142;2023-02-15T11:21:00;101882.66;;;2.93;100.00
18987;BME280;9627;59.236;18.142;2023-02-15T11:23:30;101885.91;;;2.97;100.00
18987;BME280;9627;59.236;18.142;2023-02-15T11:25:58;101885.13;;;3.07;100.00
18987;BME280;9627;59.236;18.142;2023-02-15T11:28:27;101874.22;;;3.13;100.00
18987;BME280;9627;59.236;18.142;2023-02-15T11:30:56;101882.00;;;3.02;100.00
18987;BME280;9627;59.236;18.142;2023-02-15T11:33:25;101884.00;;;2.99;100.00
18987;BME280;9627;59.236;18.142;2023-02-15T11:35:55;101879.28;;;3.04;100.00
18987;BME280;9627;59.236;18.142;2023-02-15T11:38:25;101871.44;;;2.91;100.00
18987;BME280;9627;59.236;18.142;2023-02-15T11:40:57;101871.00;;;2.97;100.00
18987;BME280;9627;59.236;18.142;2023-02-15T11:43:28;101867.75;;;3.06;100.00
18987;BME280;9627;59.236;18.142;2023-02-15T11:45:57;101871.28;;;3.05;100.00
18987;BME280;9627;59.236;18.142;2023-02-15T11:48:24;101867.63;;;3.08;100.00
18987;BME280;9627;59.236;18.142;2023-02-15T11:50:51;101868.59;;;3.07;100.00
18987;BME280;9627;59.236;18.142;2023-02-15T11:53:19;101867.03;;;2.92;100.00
18987;BME280;9627;59.236;18.142;2023-02-15T11:55:49;101858.53;;;2.88;100.00
18987;BME280;9627;59.236;18.142;2023-02-15T11:58:23;101853.28;;;3.01;100.00
18987;BME280;9627;59.236;18.142;2023-02-15T12:00:54;101861.63;;;3.06;100.00
18987;BME280;9627;59.236;18.142;2023-02-15T12:03:24;101860.28;;;3.00;100.00
18987;BME280;9627;59.236;18.142;2023-02-15T12:05:56;101851.31;;;2.92;100.00
18987;BME280;9627;59.236;18.142;2023-02-15T12:08:25;101861.16;;;2.88;100.00
18987;BME280;9627;59.236;18.142;2023-02-15T12:10:57;101850.13;;;2.96;100.00
18987;BME280;9627;59.236;18.142;2023-02-15T12:13:26;101849.06;;;2.98;100.00
18987;BME280;9627;59.236;18.142;2023-02-15T12:15:54;101850.31;;;3.05;100.00
18987;BME280;9627;59.236;18.142;2023-02-15T12:18:31;101839.09;;;3.03;100.00
18987;BME280;9627;59.236;18.142;2023-02-15T12:21:00;101831.31;;;3.02;100.00
18987;BME280;9627;59.236;18.142;2023-02-15T12:23:29;101834.56;;;3.05;100.00
18987;BME280;9627;59.236;18.142;2023-02-15T12:25:58;101828.44;;;2.81;100.00
18987;BME280;9627;59.236;18.142;2023-02-15T12:28:33;101827.50;;;2.82;100.00
18987;BME280;9627;59.236;18.142;2023-02-15T12:31:01;101827.03;;;3.01;100.00
18987;BME280;9627;59.236;18.142;2023-02-15T12:33:28;101825.47;;;2.98;100.00
18987;BME280;9627;59.236;18.142;2023-02-15T12:35:57;101816.91;;;2.83;100.00
18987;BME280;9627;59.236;18.142;2023-02-15T12:38:25;101817.22;;;2.79;100.00
18987;BME280;9627;59.236;18.142;2023-02-15T12:40:59;101809.34;;;2.79;100.00
18987;BME280;9627;59.236;18.142;2023-02-15T12:43:29;101814.59;;;2.79;100.00
18987;BME280;9627;59.236;18.142;2023-02-15T12:46:12;101806.31;;;2.85;100.00
18987;BME280;9627;59.236;18.142;2023-02-15T12:48:40;101807.75;;;2.89;100.00
18987;BME280;9627;59.236;18.142;2023-02-15T12:51:08;101808.41;;;2.80;100.00
18987;BME280;9627;59.236;18.142;2023-02-15T12:53:36;101805.56;;;2.83;100.00
18987;BME280;9627;59.236;18.142;2023-02-15T12:56:04;101796.66;;;2.86;100.00
18987;BME280;9627;59.236;18.142;2023-02-15T12:58:33;101802.22;;;2.81;100.00
18987;BME280;9627;59.236;18.142;2023-02-15T13:01:08;101789.72;;;2.84;100.00
18987;BME280;9627;59.236;18.142;2023-02-15T13:03:38;101792.56;;;2.81;100.00
18987;BME280;9627;59.236;18.142;2023-02-15T13:06:05;101790.88;;;2.80;100.00
18987;BME280;9627;59.236;18.142;2023-02-15T13:08:34;101777.63;;;2.95;100.00
18987;BME280;9627;59.236;18.142;2023-02-15T13:11:02;101785.63;;;2.80;100.00
18987;BME280;9627;59.236;18.142;2023-02-15T13:13:31;101776.91;;;2.93;100.00
18987;BME280;9627;59.236;18.142;2023-02-15T13:16:01;101778.59;;;2.94;100.00